Latest Weather Observations for Rowley Shoals

IDW60801

Issued at 2:35 pm WST Tuesday 21 October 2014 (issued every 30 minutes, with the page automatically refreshed every 10 minutes)

About weather observations | Map of weather stations | Latest weather observations for WA | Other Formats
Station Details ID: 200713 Name: ROWLEY SHOALS Lat: -17.52 Lon: 118.95 Height: 0.0 m
Data from the previous 72 hours. | See also: Recent months for locations in Western Australia
Date/Time
WST
Temp
°C
App
Temp
°C
Dew
Point
Rel
Hum
%
Delta-T
°C
Wind Press
QNH
hPa
Press
MSL
hPa
Rain
since 9 am
mm
Dir
 
Spd
km/h
Gust
km/h
Spd
kts
Gust
kts
21/02:30pm - - - - - SSW 28 32 15 17 1012.2 - -
21/02:00pm - - - - - SSW 30 33 16 18 1012.4 1012.4 -
21/01:30pm - - - - - SSW 32 37 17 20 1012.6 - -
21/01:00pm - - - - - SSW 32 39 17 21 1012.9 1012.8 -
21/12:30pm - - - - - SSW 35 43 19 23 1013.1 - -
21/12:00pm - - - - - SSW 35 41 19 22 1013.6 1013.5 -
21/11:30am - - - - - SSW 33 39 18 21 1014.2 - -
21/11:00am - - - - - SSW 33 37 18 20 1014.6 1014.6 -
21/10:30am - - - - - SSW 30 35 16 19 1015.1 - -
21/10:00am - - - - - SSW 30 35 16 19 1015.4 1015.4 -
21/09:30am - - - - - SSW 32 35 17 19 1015.8 - -
21/09:00am - - - - - SSW 32 35 17 19 1016.0 1015.8 -
21/08:30am - - - - - SSW 30 35 16 19 1015.9 - -
21/08:00am - - - - - SSW 32 39 17 21 1015.4 1015.6 -
21/07:30am - - - - - SSW 33 37 18 20 1015.4 - -
21/07:00am - - - - - SW 32 35 17 19 1015.0 1015.1 -
21/06:30am - - - - - SW 32 37 17 20 1014.7 - -
21/06:00am - - - - - SW 28 33 15 18 1014.4 1014.6 -
21/05:30am - - - - - SW 26 30 14 16 1014.1 - -
21/05:00am - - - - - SW 26 28 14 15 1014.0 1013.9 -
21/04:30am - - - - - SW 22 24 12 13 1013.8 - -
21/04:00am - - - - - SW 20 22 11 12 1013.6 1013.7 -
21/03:30am - - - - - SW 19 22 10 12 1013.6 - -
21/03:00am - - - - - SW 20 24 11 13 1013.5 1013.5 -
21/02:30am - - - - - SW 24 28 13 15 1013.4 - -
21/02:00am - - - - - SW 26 28 14 15 1013.4 1013.4 -
21/01:30am - - - - - SW 26 30 14 16 1013.5 - -
21/01:00am - - - - - SW 24 26 13 14 1013.7 1013.6 -
21/12:30am - - - - - SW 24 28 13 15 1014.0 - -
21/12:00am - - - - - SW 22 26 12 14 1014.2 1014.1 -
 
Date/Time
WST
Temp
°C
App
Temp
°C
Dew
Point
Rel
Hum
%
Delta-T
°C
Wind Press
QNH
hPa
Press
MSL
hPa
Rain
since 9 am
mm
Dir
 
Spd
km/h
Gust
km/h
Spd
kts
Gust
kts
20/11:30pm - - - - - SW 20 24 11 13 1014.5 - -
20/11:00pm - - - - - SW 19 20 10 11 1014.9 1014.8 -
20/10:30pm - - - - - SW 20 22 11 12 1015.1 - -
20/10:00pm - - - - - SW 20 22 11 12 1015.1 1015.1 -
20/09:30pm - - - - - SW 19 22 10 12 1015.3 - -
20/09:00pm - - - - - SW 19 20 10 11 1015.1 1015.2 -
20/08:30pm - - - - - SW 19 20 10 11 1014.8 - -
20/08:00pm - - - - - SW 19 20 10 11 1014.7 1014.8 -
20/07:30pm - - - - - SW 20 24 11 13 1014.5 - -
20/07:00pm - - - - - SW 20 24 11 13 1014.1 1014.2 -
20/06:30pm - - - - - SSW 20 24 11 13 1013.7 - -
20/06:00pm - - - - - SSW 22 24 12 13 1013.5 1013.5 -
20/05:30pm - - - - - SSW 17 20 9 11 1013.2 - -
20/05:00pm - - - - - SSW 19 22 10 12 1013.0 1013.0 -
20/04:30pm - - - - - SSW 19 22 10 12 1013.0 - -
20/04:00pm - - - - - SSW 20 24 11 13 1013.0 1012.9 -
20/03:30pm - - - - - SSW 19 24 10 13 1013.0 - -
20/03:00pm - - - - - S 17 20 9 11 1013.0 1013.0 -
20/02:30pm - - - - - SSW 17 20 9 11 1013.1 - -
20/02:00pm - - - - - SSW 17 20 9 11 1013.5 1013.4 -
20/01:30pm - - - - - SSW 15 19 8 10 1013.7 - -
20/01:00pm - - - - - SSW 17 20 9 11 1013.7 1013.7 -
20/12:30pm - - - - - SSW 19 22 10 12 1014.2 - -
20/12:00pm - - - - - S 19 20 10 11 1014.7 1014.6 -
20/11:30am - - - - - S 19 22 10 12 1015.1 - -
20/11:00am - - - - - SSW 19 22 10 12 1015.4 1015.3 -
20/10:30am - - - - - SSW 22 26 12 14 1015.5 - -
20/10:00am - - - - - SSW 24 30 13 16 1015.5 1015.6 -
20/09:30am - - - - - SSW 26 30 14 16 1015.7 - -
20/09:00am - - - - - SSW 26 30 14 16 1015.8 1015.8 -
20/08:30am - - - - - SSW 28 33 15 18 1015.7 - -
20/08:00am - - - - - SSW 28 32 15 17 1015.6 1015.6 -
20/07:30am - - - - - SSW 32 37 17 20 1015.2 - -
20/07:00am - - - - - SSW 33 39 18 21 1015.0 1015.0 -
20/06:30am - - - - - SW 28 32 15 17 1014.9 - -
20/06:00am - - - - - SW 28 32 15 17 1014.4 1014.5 -
20/05:30am - - - - - SW 24 28 13 15 1014.3 - -
20/05:00am - - - - - SW 22 28 12 15 1013.9 1014.0 -
20/04:30am - - - - - SW 22 28 12 15 1013.6 - -
20/04:00am - - - - - SW 22 28 12 15 1013.3 1013.4 -
20/03:30am - - - - - SW 22 28 12 15 1013.0 - -
20/03:00am - - - - - SW 22 26 12 14 1012.9 1012.9 -
20/02:30am - - - - - SW 20 26 11 14 1012.9 - -
20/02:00am - - - - - SW 22 28 12 15 1012.8 1012.7 -
20/01:30am - - - - - SW 20 24 11 13 1013.0 - -
20/01:00am - - - - - SSW 20 22 11 12 1013.1 1013.1 -
20/12:30am - - - - - SW 17 20 9 11 1013.5 - -
20/12:00am - - - - - SSW 17 20 9 11 1013.9 1013.8 -
 
Date/Time
WST
Temp
°C
App
Temp
°C
Dew
Point
Rel
Hum
%
Delta-T
°C
Wind Press
QNH
hPa
Press
MSL
hPa
Rain
since 9 am
mm
Dir
 
Spd
km/h
Gust
km/h
Spd
kts
Gust
kts
19/11:30pm - - - - - SSW 17 20 9 11 1014.1 - -
19/11:00pm - - - - - SSW 19 24 10 13 1014.3 1014.2 -
19/10:30pm - - - - - SSW 19 20 10 11 1014.7 - -
19/10:00pm - - - - - SSW 19 24 10 13 1014.7 1014.8 -
19/09:30pm - - - - - SSW 17 20 9 11 1014.7 - -
19/09:00pm - - - - - S 13 19 7 10 1014.6 1014.6 -
19/08:30pm - - - - - S 15 20 8 11 1014.3 - -
19/08:00pm - - - - - S 13 19 7 10 1014.1 1014.1 -
19/07:30pm - - - - - S 19 24 10 13 1014.0 - -
19/07:00pm - - - - - S 17 22 9 12 1013.7 1013.8 -
19/06:30pm - - - - - SSW 20 26 11 14 1013.2 - -
19/06:00pm - - - - - SSW 20 24 11 13 1012.9 1013.0 -
19/05:30pm - - - - - SSW 19 24 10 13 1012.7 - -
19/05:00pm - - - - - SSW 17 24 9 13 1012.4 1012.5 -
19/04:30pm - - - - - SSW 20 24 11 13 1012.3 - -
19/04:00pm - - - - - SSW 20 24 11 13 1012.2 1012.2 -
19/03:30pm - - - - - SSW 22 28 12 15 1012.4 - -
19/03:00pm - - - - - SSW 22 28 12 15 1012.5 1012.4 -
19/02:30pm - - - - - SSW 22 28 12 15 1012.6 - -
19/02:00pm - - - - - S 24 28 13 15 1012.7 1012.7 -
19/01:30pm - - - - - S 24 30 13 16 1012.9 - -
19/01:00pm - - - - - SSW 24 30 13 16 1013.3 1013.2 -
19/12:30pm - - - - - SSW 24 30 13 16 1013.6 - -
19/12:00pm - - - - - SSW 26 33 14 18 1013.7 1013.7 -
19/11:30am - - - - - SSW 32 37 17 20 1013.7 - -
19/11:00am - - - - - SSW 32 35 17 19 1014.2 1014.0 -
19/10:30am - - - - - SSW 28 33 15 18 1014.5 - -
19/10:00am - - - - - SSW 28 28 15 15 1014.7 1014.7 -
19/09:30am - - - - - SW 28 33 15 18 1014.9 - -
19/09:00am - - - - - SW 26 32 14 17 1014.9 1014.9 -
19/08:30am - - - - - SW 26 30 14 16 1014.7 - -
19/08:00am - - - - - SW 24 28 13 15 1014.3 1014.3 -
19/07:30am - - - - - SW 26 32 14 17 1014.2 - -
19/07:00am - - - - - SW 24 28 13 15 1014.0 1014.0 -
19/06:30am - - - - - SW 22 28 12 15 1013.6 - -
19/06:00am - - - - - SW 24 30 13 16 1013.1 1013.2 -
19/05:30am - - - - - SW 24 30 13 16 1012.8 - -
19/05:00am - - - - - SW 26 28 14 15 1012.4 1012.5 -
19/04:30am - - - - - SW 28 32 15 17 1012.1 - -
19/04:00am - - - - - SW 28 32 15 17 1011.8 1011.9 -
19/03:30am - - - - - SW 26 32 14 17 1011.7 - -
19/03:00am - - - - - SW 26 30 14 16 1011.7 1011.6 -
19/02:30am - - - - - SW 24 28 13 15 1011.6 - -
19/02:00am - - - - - SW 24 28 13 15 1011.8 1011.8 -
19/01:30am - - - - - SW 22 26 12 14 1011.9 - -
19/01:00am - - - - - WSW 20 28 11 15 1012.1 1012.0 -
19/12:30am - - - - - WSW 20 24 11 13 1012.5 - -
19/12:00am - - - - - SW 20 24 11 13 1012.8 1012.7 -
 
Date/Time
WST
Temp
°C
App
Temp
°C
Dew
Point
Rel
Hum
%
Delta-T
°C
Wind Press
QNH
hPa
Press
MSL
hPa
Rain
since 9 am
mm
Dir
 
Spd
km/h
Gust
km/h
Spd
kts
Gust
kts
18/11:30pm - - - - - WSW 20 22 11 12 1013.1 - -
18/11:00pm - - - - - WSW 19 24 10 13 1013.4 1013.4 -
18/10:30pm - - - - - WSW 17 19 9 10 1013.7 - -
18/10:00pm - - - - - WSW 15 19 8 10 1013.8 1013.7 -
18/09:30pm - - - - - WSW 15 19 8 10 1013.8 - -
18/09:00pm - - - - - WSW 17 19 9 10 1013.8 1013.9 -
18/08:30pm - - - - - WSW 15 17 8 9 1013.6 - -
18/08:00pm - - - - - W 13 15 7 8 1013.3 1013.4 -
18/07:30pm - - - - - W 9 13 5 7 1013.0 - -
18/07:00pm - - - - - W 9 11 5 6 1012.6 1012.7 -
18/06:30pm - - - - - W 11 13 6 7 1012.4 - -
18/06:00pm - - - - - W 9 13 5 7 1012.3 1012.3 -
18/05:30pm - - - - - W 9 11 5 6 1012.1 - -
18/05:00pm - - - - - W 9 11 5 6 1011.9 1011.9 -
18/04:30pm - - - - - WNW 7 9 4 5 1011.8 - -
18/04:00pm - - - - - ESE 0 6 0 3 1011.6 1011.7 -
18/03:30pm - - - - - NE 4 7 2 4 1011.6 - -
18/03:00pm - - - - - E 7 11 4 6 1011.6 1011.5 -

Other Formats:

Comma delimited format used in spreadsheet applications
http://www.bom.gov.au/fwo/IDW60801/IDW60801.94207.axf

JavaScript Object Notation format (JSON) in row-major order
http://www.bom.gov.au/fwo/IDW60801/IDW60801.94207.json